Time;durP1;ratioP1;P1;durP2;ratioP2;P2;SDS_P1;SDS_P2;PMS_P1;PMS_P2;Temp;Humidity;BMP_temperature;BMP_pressure;BME280_temperature;BME280_humidity;BME280_pressure;Samples;Min_cycle;Max_cycle;Signal;HPM_P1;HPM_P2
2021/06/08 00:02:09;;;;;;;18.98;12.00;;;;;;;14.70;100.00;102276.19;5262287;28;20016;-62
2021/06/08 00:04:40;;;;;;;21.30;11.43;;;;;;;14.72;100.00;102271.50;5255078;28;20028;-62
2021/06/08 00:07:11;;;;;;;18.55;11.48;;;;;;;14.65;100.00;102273.09;5241116;28;20484;-62
2021/06/08 00:09:41;;;;;;;18.58;11.10;;;;;;;14.55;100.00;102266.13;5268064;28;20028;-62
2021/06/08 00:12:12;;;;;;;18.70;11.45;;;;;;;14.43;100.00;102265.50;5259648;28;20024;-62
2021/06/08 00:14:42;;;;;;;18.13;11.27;;;;;;;14.28;100.00;102267.91;5250310;28;20411;-62
2021/06/08 00:17:13;;;;;;;17.80;12.40;;;;;;;14.15;100.00;102265.59;5257931;28;20492;-62
2021/06/08 00:19:43;;;;;;;18.95;12.93;;;;;;;14.01;100.00;102266.16;5250072;28;20025;-62
2021/06/08 00:22:14;;;;;;;20.15;13.20;;;;;;;13.90;100.00;102271.78;5239955;28;20024;-62
2021/06/08 00:24:45;;;;;;;20.35;12.88;;;;;;;13.80;100.00;102277.22;5240833;28;20060;-62
2021/06/08 00:27:15;;;;;;;18.02;12.27;;;;;;;13.72;100.00;102271.78;5260008;28;20081;-62
2021/06/08 00:29:46;;;;;;;20.70;14.23;;;;;;;13.64;100.00;102271.66;5261009;28;20056;-62
2021/06/08 00:32:16;;;;;;;20.67;12.95;;;;;;;13.57;100.00;102270.59;5254193;28;20055;-62
2021/06/08 00:34:47;;;;;;;25.77;15.25;;;;;;;13.51;100.00;102284.69;5257003;28;20020;-62
2021/06/08 00:37:17;;;;;;;23.63;14.27;;;;;;;13.44;100.00;102284.41;5249051;28;20103;-62
2021/06/08 00:39:48;;;;;;;22.63;15.32;;;;;;;13.36;100.00;102285.19;5257828;28;20132;-62
2021/06/08 00:42:27;;;;;;;27.75;15.88;;;;;;;13.30;100.00;102284.91;5240973;28;20028;-62
2021/06/08 00:44:58;;;;;;;24.48;14.10;;;;;;;13.26;100.00;102280.84;5258583;28;20039;-62
2021/06/08 00:47:29;;;;;;;24.05;14.00;;;;;;;13.20;100.00;102285.78;5261418;28;20397;-64
2021/06/08 00:49:59;;;;;;;19.95;12.82;;;;;;;13.15;100.00;102282.69;5260045;28;20024;-64
2021/06/08 00:52:30;;;;;;;22.65;13.80;;;;;;;13.11;100.00;102281.28;5247244;28;20031;-64
2021/06/08 00:55:00;;;;;;;21.80;13.55;;;;;;;13.08;100.00;102283.41;5247761;28;20069;-64
2021/06/08 00:57:31;;;;;;;26.65;14.82;;;;;;;13.03;100.00;102278.47;5260513;28;20035;-64
2021/06/08 01:00:04;;;;;;;26.42;14.85;;;;;;;12.96;100.00;102280.06;5260534;28;20111;-64
2021/06/08 01:02:35;;;;;;;26.33;15.75;;;;;;;12.89;100.00;102284.31;5261371;28;20039;-64
2021/06/08 01:05:08;;;;;;;24.45;16.45;;;;;;;12.83;100.00;102272.31;5261697;28;20032;-64
2021/06/08 01:07:39;;;;;;;25.90;16.30;;;;;;;12.78;100.00;102284.50;5260327;28;20020;-64
2021/06/08 01:10:11;;;;;;;26.90;15.38;;;;;;;12.74;100.00;102280.41;5260030;28;20024;-64
2021/06/08 01:12:42;;;;;;;26.58;15.35;;;;;;;12.67;100.00;102282.84;5247626;28;20028;-64
2021/06/08 01:15:13;;;;;;;24.35;15.38;;;;;;;12.62;100.00;102275.19;5246678;28;20024;-64
2021/06/08 01:17:44;;;;;;;29.77;17.60;;;;;;;12.57;100.00;102282.00;5257491;28;20122;-64
2021/06/08 01:20:22;;;;;;;28.30;16.48;;;;;;;12.51;100.00;102279.91;5258653;28;20394;-64
2021/06/08 01:22:53;;;;;;;30.15;17.60;;;;;;;12.48;100.00;102277.47;5260714;28;20031;-64
2021/06/08 01:25:27;;;;;;;26.27;15.20;;;;;;;12.47;100.00;102283.88;5242221;28;20020;-64
2021/06/08 01:27:59;;;;;;;23.98;16.00;;;;;;;12.46;100.00;102285.72;5240052;28;20028;-64
2021/06/08 01:30:30;;;;;;;29.08;18.42;;;;;;;12.41;100.00;102277.22;5238629;28;20021;-64
2021/06/08 01:33:01;;;;;;;30.00;18.83;;;;;;;12.36;100.00;102282.19;5242931;28;20357;-64
2021/06/08 01:35:32;;;;;;;34.75;20.15;;;;;;;12.31;100.00;102281.75;5239738;28;20025;-64
2021/06/08 01:38:03;;;;;;;31.00;18.88;;;;;;;12.25;100.00;102276.94;5239497;28;20145;-64
2021/06/08 01:40:34;;;;;;;32.83;19.35;;;;;;;12.20;100.00;102277.38;5239184;28;20382;-64
2021/06/08 01:43:05;;;;;;;30.63;18.80;;;;;;;12.17;100.00;102283.03;5239649;28;20032;-64
2021/06/08 01:45:36;;;;;;;36.60;21.98;;;;;;;12.14;100.00;102277.91;5239356;28;20028;-64
2021/06/08 01:48:09;;;;;;;31.35;19.20;;;;;;;12.11;100.00;102287.16;5243035;28;20022;-65
2021/06/08 01:50:40;;;;;;;32.28;19.17;;;;;;;12.10;100.00;102284.59;5259689;28;20043;-64
2021/06/08 01:53:28;;;;;;;35.97;21.58;;;;;;;12.06;100.00;102294.78;5259414;28;20586;-64
2021/06/08 01:56:07;;;;;;;32.90;20.58;;;;;;;11.98;100.00;102281.19;5260511;28;20040;-64
2021/06/08 01:58:53;;;;;;;31.48;18.73;;;;;;;11.98;100.00;102288.41;5260732;28;20032;-64
2021/06/08 02:01:34;;;;;;;27.48;17.17;;;;;;;11.92;100.00;102293.34;5253295;28;20154;-64
2021/06/08 02:04:15;;;;;;;27.67;15.02;;;;;;;11.85;100.00;102286.84;5254251;28;20166;-64
2021/06/08 02:06:55;;;;;;;30.63;17.70;;;;;;;11.81;100.00;102280.00;5260416;28;20027;-63
2021/06/08 02:09:37;;;;;;;34.53;19.25;;;;;;;11.78;100.00;102287.50;5253832;28;20028;-64
2021/06/08 02:12:16;;;;;;;29.70;17.60;;;;;;;11.73;100.00;102287.06;5238950;28;20021;-64
2021/06/08 02:14:56;;;;;;;27.50;18.17;;;;;;;11.70;100.00;102292.69;5248449;28;20028;-64
2021/06/08 02:17:33;;;;;;;36.97;18.88;;;;;;;11.66;100.00;102292.16;5259738;28;20020;-64
2021/06/08 02:20:09;;;;;;;30.90;19.33;;;;;;;11.61;100.00;102287.19;5259666;28;20024;-64
2021/06/08 02:22:45;;;;;;;36.88;20.35;;;;;;;11.57;100.00;102293.81;5259771;28;20028;-64
2021/06/08 02:25:18;;;;;;;37.25;21.88;;;;;;;11.54;100.00;102299.47;5244274;28;20036;-64
2021/06/08 02:27:51;;;;;;;39.72;24.20;;;;;;;11.53;100.00;102303.13;5239043;28;20029;-64
2021/06/08 02:30:22;;;;;;;42.90;24.67;;;;;;;11.49;100.00;102293.66;5238552;28;20126;-64
2021/06/08 02:32:54;;;;;;;40.88;23.08;;;;;;;11.49;100.00;102295.47;5250243;28;20024;-64
2021/06/08 02:35:26;;;;;;;36.03;20.75;;;;;;;11.45;100.00;102297.63;5253343;28;20025;-64
2021/06/08 02:37:58;;;;;;;43.85;24.83;;;;;;;11.42;100.00;102300.56;5239190;28;20038;-64
2021/06/08 02:40:30;;;;;;;31.13;17.88;;;;;;;11.41;100.00;102299.72;5259666;28;20023;-64
2021/06/08 02:43:01;;;;;;;38.00;21.35;;;;;;;11.40;100.00;102305.25;5260095;28;20107;-64
2021/06/08 02:45:32;;;;;;;40.30;22.58;;;;;;;11.35;100.00;102297.59;5239817;28;20029;-64
2021/06/08 02:48:03;;;;;;;40.75;23.13;;;;;;;11.31;100.00;102301.53;5243260;28;20082;-64
2021/06/08 02:50:35;;;;;;;43.80;23.80;;;;;;;11.28;100.00;102295.56;5249063;28;20029;-64
2021/06/08 02:53:05;;;;;;;42.05;24.70;;;;;;;11.26;100.00;102303.75;5260701;28;20230;-64
2021/06/08 02:55:38;;;;;;;23.63;13.95;;;;;;;11.26;100.00;102305.59;5264028;28;20027;-64
2021/06/08 02:58:11;;;;;;;27.90;16.35;;;;;;;11.24;100.00;102303.03;5262883;28;20020;-63
2021/06/08 03:00:41;;;;;;;41.63;21.58;;;;;;;11.26;100.00;102302.91;5261797;28;20032;-64
2021/06/08 03:03:17;;;;;;;39.53;21.83;;;;;;;11.25;100.00;102301.22;5251312;28;20041;-64
2021/06/08 03:05:54;;;;;;;36.78;22.20;;;;;;;11.22;100.00;102309.53;5250411;28;20032;-64
2021/06/08 03:08:31;;;;;;;37.05;22.00;;;;;;;11.16;100.00;102297.50;5265787;28;20437;-64
2021/06/08 03:11:06;;;;;;;40.53;22.75;;;;;;;11.13;100.00;102306.66;5263763;28;20254;-64
2021/06/08 03:13:37;;;;;;;34.40;20.70;;;;;;;11.12;100.00;102307.66;5263107;28;20115;-64
2021/06/08 03:16:09;;;;;;;36.92;21.60;;;;;;;11.09;100.00;102305.25;5250492;28;20023;-64
2021/06/08 03:18:44;;;;;;;33.05;20.85;;;;;;;11.07;100.00;102315.25;5259941;28;20024;-64
2021/06/08 03:21:24;;;;;;;35.42;20.63;;;;;;;11.05;100.00;102305.66;5242594;28;20025;-64
2021/06/08 03:23:56;;;;;;;31.67;19.15;;;;;;;11.03;100.00;102312.97;5242798;28;20024;-64
2021/06/08 03:26:29;;;;;;;29.13;17.52;;;;;;;10.99;100.00;102308.84;5254807;28;20027;-64
2021/06/08 03:29:01;;;;;;;28.40;17.38;;;;;;;10.98;100.00;102313.38;5261289;28;20020;-63
2021/06/08 03:31:35;;;;;;;29.38;18.27;;;;;;;11.00;100.00;102318.63;5261118;28;20051;-64
2021/06/08 03:34:07;;;;;;;29.83;17.92;;;;;;;11.00;100.00;102316.81;5262364;28;20095;-64
2021/06/08 03:36:38;;;;;;;38.58;22.35;;;;;;;11.02;100.00;102319.34;5245787;28;20389;-64
2021/06/08 03:39:09;;;;;;;34.33;19.38;;;;;;;11.02;100.00;102320.19;5251841;28;20039;-64
2021/06/08 03:41:40;;;;;;;34.65;20.02;;;;;;;11.04;100.00;102318.22;5257954;28;20020;-64
2021/06/08 03:44:13;;;;;;;40.35;23.08;;;;;;;11.07;100.00;102322.47;5244643;28;20089;-64
2021/06/08 03:46:45;;;;;;;38.50;22.00;;;;;;;11.11;100.00;102319.38;5241821;28;20031;-64
2021/06/08 03:49:18;;;;;;;30.42;18.45;;;;;;;11.12;100.00;102325.63;5254420;28;20062;-64
2021/06/08 03:51:53;;;;;;;30.85;18.17;;;;;;;11.11;100.00;102323.91;5249256;28;20020;-64
2021/06/08 03:54:24;;;;;;;27.00;16.20;;;;;;;11.10;100.00;102331.13;5259512;28;20049;-64
2021/06/08 03:56:57;;;;;;;23.05;14.15;;;;;;;11.10;100.00;102322.22;5241508;28;20028;-64
2021/06/08 03:59:29;;;;;;;17.38;13.05;;;;;;;11.12;100.00;102328.28;5245179;28;20020;-64
2021/06/08 04:02:01;;;;;;;32.17;18.60;;;;;;;11.13;100.00;102328.16;5262624;28;20367;-64
2021/06/08 04:04:31;;;;;;;32.63;20.65;;;;;;;11.17;100.00;102327.91;5262452;28;20085;-64
2021/06/08 04:07:02;;;;;;;31.92;18.17;;;;;;;11.20;100.00;102331.19;5261809;28;20036;-64
2021/06/08 04:09:33;;;;;;;25.25;15.77;;;;;;;11.22;100.00;102331.88;5261552;28;20020;-64
2021/06/08 04:12:04;;;;;;;24.17;15.20;;;;;;;11.25;100.00;102336.16;5261897;28;20028;-64
2021/06/08 04:14:36;;;;;;;24.13;15.57;;;;;;;11.30;100.00;102332.06;5262029;28;20031;-64
2021/06/08 04:17:06;;;;;;;27.80;18.02;;;;;;;11.35;100.00;102329.81;5261107;28;20391;-64
2021/06/08 04:19:37;;;;;;;36.88;21.02;;;;;;;11.40;100.00;102327.59;5251237;28;20466;-64
2021/06/08 04:22:08;;;;;;;35.08;20.65;;;;;;;11.47;100.00;102327.03;5241014;28;20032;-64
2021/06/08 04:24:39;;;;;;;33.83;19.63;;;;;;;11.54;100.00;102330.88;5241053;28;20085;-65
2021/06/08 04:27:09;;;;;;;34.95;20.60;;;;;;;11.59;100.00;102326.78;5240849;28;20024;-64
2021/06/08 04:29:41;;;;;;;30.52;19.67;;;;;;;11.68;100.00;102333.19;5238117;28;20026;-64
2021/06/08 04:32:11;;;;;;;33.38;19.77;;;;;;;11.77;100.00;102324.28;5260968;28;20102;-64
2021/06/08 04:34:52;;;;;;;32.42;18.65;;;;;;;11.87;100.00;102335.09;5261291;28;20020;-64
2021/06/08 04:37:23;;;;;;;34.13;20.48;;;;;;;11.95;100.00;102329.88;5261558;28;20456;-64
2021/06/08 04:39:53;;;;;;;35.47;21.05;;;;;;;12.04;100.00;102331.72;5261040;28;20103;-64
2021/06/08 04:42:24;;;;;;;40.60;21.98;;;;;;;12.14;100.00;102327.19;5261029;28;20024;-64
2021/06/08 04:44:55;;;;;;;31.77;20.23;;;;;;;12.25;100.00;102336.13;5241986;28;20044;-64
2021/06/08 04:47:25;;;;;;;33.10;20.55;;;;;;;12.31;100.00;102324.81;5252048;28;20031;-64
2021/06/08 04:49:56;;;;;;;31.42;19.98;;;;;;;12.37;100.00;102335.00;5259523;28;20439;-64
2021/06/08 04:52:26;;;;;;;34.40;20.10;;;;;;;12.47;100.00;102330.47;5259971;28;20020;-63
2021/06/08 04:54:57;;;;;;;32.50;19.95;;;;;;;12.58;100.00;102333.00;5260623;28;20053;-65
2021/06/08 04:57:27;;;;;;;33.58;20.42;;;;;;;12.66;100.00;102335.84;5261225;28;20356;-64
2021/06/08 05:00:06;;;;;;;34.05;21.27;;;;;;;12.80;100.00;102333.69;5260930;28;20024;-64
2021/06/08 05:02:39;;;;;;;39.22;22.65;;;;;;;12.94;100.00;102334.06;5258145;28;20032;-64
2021/06/08 05:05:16;;;;;;;43.67;24.77;;;;;;;13.09;100.00;102339.84;5250471;28;20351;-64
2021/06/08 05:08:00;;;;;;;41.33;25.60;;;;;;;13.27;100.00;102334.59;5241884;28;20024;-64
2021/06/08 05:10:36;;;;;;;42.38;25.70;;;;;;;13.45;100.00;102329.25;5260322;28;20031;-64
2021/06/08 05:13:09;;;;;;;;;;;;;;;13.61;100.00;102336.72;5260354;28;20039;-64
2021/06/08 05:15:41;;;;;;;46.35;24.90;;;;;;;13.76;100.00;102337.91;5260428;28;20354;-64
2021/06/08 05:18:14;;;;;;;43.33;25.05;;;;;;;13.92;100.00;102334.53;5250890;28;20032;-64
2021/06/08 05:20:46;;;;;;;38.38;25.92;;;;;;;14.18;100.00;102330.06;5260878;28;20438;-64
2021/06/08 05:23:17;;;;;;;34.58;23.25;;;;;;;15.08;100.00;102338.91;5261002;28;20523;-65
2021/06/08 05:25:51;;;;;;;33.15;21.20;;;;;;;16.52;100.00;102328.91;5240649;28;20052;-64
2021/06/08 05:28:22;;;;;;;34.75;19.42;;;;;;;17.89;100.00;102331.44;5254225;28;20438;-65
2021/06/08 05:30:53;;;;;;;26.00;17.33;;;;;;;18.89;100.00;102324.06;5252027;28;20504;-65
2021/06/08 05:33:24;;;;;;;25.13;17.13;;;;;;;19.70;100.00;102340.50;5255652;28;20020;-65
2021/06/08 05:35:56;;;;;;;24.45;16.65;;;;;;;20.11;100.00;102343.50;5250364;28;20031;-65
2021/06/08 05:38:36;;;;;;;23.23;16.30;;;;;;;20.50;100.00;102339.50;5252382;28;20039;-66
2021/06/08 05:41:09;;;;;;;24.20;16.40;;;;;;;20.81;100.00;102341.88;5252714;28;20492;-65
2021/06/08 05:43:41;;;;;;;28.33;16.30;;;;;;;21.03;100.00;102339.91;5242622;28;20399;-65
2021/06/08 05:46:11;;;;;;;22.15;16.42;;;;;;;21.35;100.00;102345.81;5239654;28;20020;-66
2021/06/08 05:48:42;;;;;;;22.67;16.50;;;;;;;21.72;100.00;102348.09;5239260;28;20602;-65
2021/06/08 05:51:13;;;;;;;21.17;15.57;;;;;;;21.94;100.00;102351.56;5241883;28;20099;-65
2021/06/08 05:53:45;;;;;;;22.60;15.55;;;;;;;21.85;100.00;102351.94;5260790;28;20028;-65
2021/06/08 05:56:17;;;;;;;20.50;15.18;;;;;;;22.22;100.00;102353.31;5260857;28;20030;-65
2021/06/08 05:58:48;;;;;;;21.35;14.30;;;;;;;23.74;100.00;102357.84;5260938;28;20072;-65
2021/06/08 06:01:20;;;;;;;20.15;14.75;;;;;;;23.33;100.00;102342.56;5239914;28;20017;-65
2021/06/08 06:03:51;;;;;;;22.40;15.07;;;;;;;22.97;100.00;102356.75;5239749;28;20032;-65
2021/06/08 06:06:22;;;;;;;23.08;15.02;;;;;;;23.01;100.00;102341.59;5247884;28;20020;-65
2021/06/08 06:08:54;;;;;;;27.70;14.75;;;;;;;23.48;100.00;102345.06;5265116;28;20143;-65
2021/06/08 06:11:27;;;;;;;23.10;14.63;;;;;;;23.61;100.00;102349.66;5239796;28;20021;-66
2021/06/08 06:14:02;;;;;;;19.88;13.80;;;;;;;25.16;81.95;102339.97;5242268;28;20494;-66
2021/06/08 06:16:38;;;;;;;19.67;14.88;;;;;;;24.54;88.25;102350.00;5260553;28;20024;-66
2021/06/08 06:19:09;;;;;;;21.27;15.02;;;;;;;25.71;70.04;102348.22;5259574;28;20092;-66
2021/06/08 06:21:40;;;;;;;21.48;14.70;;;;;;;25.20;76.00;102337.59;5262730;28;20024;-65
2021/06/08 06:24:11;;;;;;;16.73;13.18;;;;;;;26.38;65.87;102344.53;5263929;28;20081;-65
2021/06/08 06:26:43;;;;;;;17.60;12.70;;;;;;;27.49;60.06;102342.78;5264244;28;20024;-65
2021/06/08 06:29:15;;;;;;;21.77;15.15;;;;;;;27.07;60.09;102340.22;5254355;28;20047;-65
2021/06/08 06:31:48;;;;;;;16.33;13.63;;;;;;;27.08;61.21;102342.75;5243109;28;20021;-65
2021/06/08 06:34:19;;;;;;;18.55;12.93;;;;;;;26.68;63.34;102348.09;5257494;28;20101;-65
2021/06/08 06:36:50;;;;;;;23.63;17.30;;;;;;;25.37;78.65;102346.94;5250421;28;20496;-65
2021/06/08 06:39:26;;;;;;;21.58;15.00;;;;;;;25.72;74.98;102355.38;5263297;28;20392;-65
2021/06/08 06:42:01;;;;;;;19.65;16.05;;;;;;;25.52;77.45;102344.63;5236516;28;20115;-65
2021/06/08 06:44:33;;;;;;;23.30;16.00;;;;;;;25.62;74.11;102346.84;5254054;28;20115;-63
2021/06/08 06:47:04;;;;;;;20.05;14.77;;;;;;;25.47;73.42;102349.16;5253926;28;20094;-63
2021/06/08 06:49:35;;;;;;;23.75;14.50;;;;;;;24.84;85.03;102352.91;5255743;28;20016;-63
2021/06/08 06:52:07;;;;;;;21.38;15.10;;;;;;;24.37;94.50;102357.94;5251750;28;20056;-63
2021/06/08 06:54:39;;;;;;;19.27;13.35;;;;;;;24.13;87.68;102355.97;5259357;28;20036;-65
2021/06/08 06:57:10;;;;;;;24.00;16.23;;;;;;;23.04;100.00;102351.28;5262078;28;20039;-65
2021/06/08 06:59:41;;;;;;;28.20;17.00;;;;;;;22.65;100.00;102351.06;5240822;28;20432;-65
2021/06/08 07:02:13;;;;;;;24.33;16.35;;;;;;;22.63;100.00;102349.59;5254542;28;20020;-65
2021/06/08 07:04:44;;;;;;;28.52;16.08;;;;;;;22.58;100.00;102355.69;5248716;28;20028;-65
2021/06/08 07:07:20;;;;;;;24.48;15.38;;;;;;;22.26;100.00;102351.88;5262261;28;20080;-65
2021/06/08 07:09:51;;;;;;;20.98;13.88;;;;;;;22.26;100.00;102357.34;5261457;28;20051;-65
2021/06/08 07:12:22;;;;;;;23.02;14.35;;;;;;;22.18;100.00;102354.78;5257298;28;20048;-65
2021/06/08 07:14:53;;;;;;;17.98;13.73;;;;;;;22.16;100.00;102355.00;5252171;28;20032;-65
2021/06/08 07:17:24;;;;;;;16.27;11.77;;;;;;;22.15;100.00;102358.78;5256705;28;20116;-65
2021/06/08 07:19:56;;;;;;;18.30;12.35;;;;;;;22.35;100.00;102355.25;5240239;28;20105;-65
2021/06/08 07:22:28;;;;;;;18.98;11.55;;;;;;;22.57;100.00;102356.75;5247151;28;20051;-68
2021/06/08 07:25:01;;;;;;;22.38;14.00;;;;;;;22.74;100.00;102352.56;5260768;28;20024;-67
2021/06/08 07:27:32;;;;;;;23.70;14.68;;;;;;;22.77;100.00;102356.75;5239848;28;20024;-67
2021/06/08 07:30:05;;;;;;;22.40;14.85;;;;;;;22.88;100.00;102355.25;5252864;28;20058;-68
2021/06/08 07:32:43;;;;;;;18.73;14.30;;;;;;;22.93;94.87;102350.03;5240103;28;20067;-67
2021/06/08 07:35:21;;;;;;;21.90;14.63;;;;;;;23.10;81.19;102347.72;5258011;28;20020;-68
2021/06/08 07:37:52;;;;;;;24.08;15.77;;;;;;;22.96;93.03;102349.63;5261385;28;20040;-68
2021/06/08 07:40:23;;;;;;;22.63;14.55;;;;;;;22.81;100.00;102349.81;5260915;28;20481;-68
2021/06/08 07:42:57;;;;;;;19.73;12.45;;;;;;;22.99;100.00;102344.56;5246304;28;20111;-67
2021/06/08 07:45:32;;;;;;;18.23;11.77;;;;;;;23.16;93.86;102344.09;5241113;28;20051;-68
2021/06/08 07:48:06;;;;;;;17.27;11.52;;;;;;;23.34;97.70;102344.25;5242192;28;20797;-68
2021/06/08 07:50:39;;;;;;;18.87;12.00;;;;;;;23.47;97.98;102343.38;5249572;28;20035;-68
2021/06/08 07:53:11;;;;;;;19.70;12.82;;;;;;;23.45;85.91;102342.78;5258317;28;20388;-68
2021/06/08 07:55:43;;;;;;;16.10;11.10;;;;;;;23.57;92.82;102351.16;5248633;28;20070;-68
2021/06/08 07:58:14;;;;;;;18.63;11.85;;;;;;;23.77;89.78;102350.03;5252794;28;20108;-68
2021/06/08 08:00:44;;;;;;;17.75;12.80;;;;;;;23.81;89.29;102355.09;5240107;28;20556;-68
2021/06/08 08:03:25;;;;;;;17.33;12.13;;;;;;;23.88;91.30;102355.88;5260508;28;20051;-68
2021/06/08 08:05:59;;;;;;;17.80;13.30;;;;;;;23.90;82.30;102351.06;5261046;28;20027;-68
2021/06/08 08:08:32;;;;;;;21.50;12.85;;;;;;;23.89;78.75;102352.09;5254341;28;20133;-68
2021/06/08 08:11:15;;;;;;;18.65;12.95;;;;;;;24.02;80.60;102347.38;5253780;28;20028;-67
2021/06/08 08:13:48;;;;;;;21.05;13.43;;;;;;;24.18;87.75;102350.66;5253863;28;20384;-68
2021/06/08 08:16:19;;;;;;;20.92;12.32;;;;;;;24.20;83.31;102345.81;5257265;28;20031;-67
2021/06/08 08:18:52;;;;;;;19.63;13.55;;;;;;;24.09;85.18;102341.84;5259896;28;20303;-67
2021/06/08 08:21:22;;;;;;;19.85;13.25;;;;;;;24.18;78.96;102343.28;5259602;28;20020;-67
2021/06/08 08:23:53;;;;;;;19.48;11.82;;;;;;;24.42;77.42;102352.63;5242784;28;20024;-67
2021/06/08 08:26:24;;;;;;;18.13;12.82;;;;;;;24.11;82.69;102342.50;5249980;28;20031;-67
2021/06/08 08:28:59;;;;;;;18.85;12.88;;;;;;;24.39;78.82;102350.31;5241561;28;20023;-67
2021/06/08 08:31:30;;;;;;;19.73;13.52;;;;;;;24.38;80.40;102339.59;5238003;28;20029;-67
2021/06/08 08:34:01;;;;;;;17.50;11.63;;;;;;;24.71;79.36;102336.59;5250125;28;20031;-67
2021/06/08 08:36:37;;;;;;;17.38;11.35;;;;;;;24.84;79.58;102336.44;5256232;28;20016;-67
2021/06/08 08:39:11;;;;;;;19.30;12.48;;;;;;;25.15;69.89;102327.31;5249483;28;20031;-68
2021/06/08 08:41:42;;;;;;;18.33;11.75;;;;;;;25.37;73.17;102326.88;5259158;28;20111;-69
2021/06/08 08:44:13;;;;;;;20.13;13.25;;;;;;;25.17;69.70;102324.34;5256101;28;20394;-69
2021/06/08 08:46:43;;;;;;;18.73;12.27;;;;;;;25.12;67.91;102321.44;5253313;28;20111;-69
2021/06/08 08:49:14;;;;;;;18.45;12.90;;;;;;;25.29;65.43;102319.75;5252295;28;20396;-67
2021/06/08 08:51:48;;;;;;;16.45;12.10;;;;;;;24.98;64.68;102320.69;5259787;28;20027;-68
2021/06/08 08:54:21;;;;;;;15.70;11.70;;;;;;;24.96;68.55;102318.19;5243752;28;20134;-67
2021/06/08 08:56:51;;;;;;;16.02;10.75;;;;;;;25.56;63.72;102314.81;5238402;28;20123;-67
2021/06/08 08:59:22;;;;;;;16.23;10.18;;;;;;;25.38;66.48;102312.88;5255347;28;20076;-67
2021/06/08 09:01:55;;;;;;;14.52;10.07;;;;;;;25.35;66.92;102316.09;5259087;28;20051;-67
2021/06/08 09:04:26;;;;;;;14.95;11.48;;;;;;;25.31;60.19;102306.66;5240380;28;20369;-69
2021/06/08 09:06:57;;;;;;;15.82;10.60;;;;;;;25.37;65.69;102305.72;5238053;28;20544;-70
2021/06/08 09:09:28;;;;;;;15.07;10.43;;;;;;;25.35;63.21;102310.59;5250163;28;20062;-69
2021/06/08 09:12:04;;;;;;;16.48;10.40;;;;;;;25.49;66.57;102309.38;5257494;28;20039;-71
2021/06/08 09:14:34;;;;;;;15.82;9.75;;;;;;;25.79;63.58;102311.34;5247022;28;20023;-70
2021/06/08 09:17:06;;;;;;;17.05;9.63;;;;;;;26.07;60.45;102302.50;5259372;28;20477;-71
2021/06/08 09:19:37;;;;;;;10.63;7.95;;;;;;;25.95;55.98;102305.19;5258764;28;20028;-70
2021/06/08 09:22:10;;;;;;;11.52;8.30;;;;;;;25.48;57.44;102299.44;5255476;28;20480;-69
2021/06/08 09:24:44;;;;;;;9.82;7.40;;;;;;;25.44;58.54;102303.72;5238474;28;20122;-71
2021/06/08 09:27:15;;;;;;;13.18;7.80;;;;;;;25.44;58.20;102298.22;5238275;28;20067;-71
2021/06/08 09:29:45;;;;;;;12.55;8.05;;;;;;;25.72;60.09;102296.84;5237267;28;20123;-71
2021/06/08 09:32:21;;;;;;;9.82;7.00;;;;;;;25.92;54.52;102297.41;5245083;28;20024;-70
2021/06/08 09:34:54;;;;;;;9.48;5.90;;;;;;;25.53;52.82;102288.59;5258421;28;20027;-67
2021/06/08 09:37:35;;;;;;;8.13;5.90;;;;;;;25.87;51.08;102290.94;5249240;28;20045;-68
2021/06/08 09:40:18;;;;;;;9.07;6.30;;;;;;;26.06;51.17;102292.56;5252863;28;20028;-68
2021/06/08 09:43:01;;;;;;;11.65;6.30;;;;;;;26.20;54.11;102294.00;5252446;28;20069;-68
2021/06/08 09:45:45;;;;;;;13.55;8.93;;;;;;;26.82;53.75;102290.91;5239561;28;20485;-68
2021/06/08 09:48:16;;;;;;;11.65;8.57;;;;;;;26.96;52.22;102283.19;5242540;28;20020;-68
2021/06/08 09:50:49;;;;;;;12.85;9.40;;;;;;;27.15;52.02;102281.16;5245902;28;20037;-68
2021/06/08 09:53:25;;;;;;;15.85;9.90;;;;;;;26.64;53.57;102291.00;5244846;28;20028;-68
2021/06/08 09:55:59;;;;;;;13.68;8.38;;;;;;;26.82;51.46;102291.72;5248106;28;20050;-66
2021/06/08 09:58:31;;;;;;;11.43;7.72;;;;;;;26.50;51.90;102287.63;5262381;28;20043;-66
2021/06/08 10:01:18;;;;;;;10.55;8.05;;;;;;;26.28;52.70;102288.19;5262177;28;20426;-66
2021/06/08 10:03:50;;;;;;;9.38;7.07;;;;;;;25.99;56.05;102287.16;5263456;28;20388;-66
2021/06/08 10:06:24;;;;;;;9.70;7.93;;;;;;;26.74;53.37;102275.56;5249952;28;20058;-66
2021/06/08 10:08:57;;;;;;;12.53;8.27;;;;;;;26.88;50.68;102289.94;5263188;28;20097;-66
2021/06/08 10:11:31;;;;;;;12.23;8.55;;;;;;;26.41;50.18;102283.53;5262303;28;20504;-66
2021/06/08 10:14:17;;;;;;;8.05;6.18;;;;;;;26.46;52.91;102284.53;5263319;28;20020;-66
2021/06/08 10:17:01;;;;;;;14.43;8.88;;;;;;;26.42;49.68;102276.97;5253152;28;20036;-66
2021/06/08 10:19:32;;;;;;;10.60;7.47;;;;;;;26.58;49.63;102282.63;5251659;28;20179;-66
2021/06/08 10:22:03;;;;;;;10.77;7.13;;;;;;;26.93;49.35;102269.94;5259443;28;20203;-66
2021/06/08 10:24:33;;;;;;;10.70;7.35;;;;;;;27.02;45.87;102266.56;5252833;28;20451;-66
2021/06/08 10:27:04;;;;;;;9.77;6.90;;;;;;;26.74;50.11;102267.31;5263197;28;20028;-66
2021/06/08 10:29:35;;;;;;;12.15;7.10;;;;;;;26.71;50.68;102270.56;5250756;28;20032;-64
2021/06/08 10:32:06;;;;;;;11.82;7.35;;;;;;;26.52;48.09;102267.06;5241323;28;20032;-66
2021/06/08 10:34:38;;;;;;;8.65;6.85;;;;;;;26.43;48.21;102265.75;5257886;28;20488;-64
2021/06/08 10:37:09;;;;;;;10.02;6.60;;;;;;;26.12;47.62;102271.53;5249487;28;20024;-64
2021/06/08 10:39:39;;;;;;;8.60;5.53;;;;;;;26.46;48.43;102268.03;5248545;28;20532;-65
2021/06/08 10:42:10;;;;;;;9.27;6.88;;;;;;;26.49;49.60;102264.78;5262544;28;20035;-65
2021/06/08 10:44:41;;;;;;;10.88;5.30;;;;;;;26.85;54.59;102265.63;5261584;28;20460;-64
2021/06/08 10:47:32;;;;;;;11.57;5.25;;;;;;;27.41;51.39;102268.75;5263128;28;20396;-66
2021/06/08 10:50:27;;;;;;;7.93;5.35;;;;;;;28.12;46.72;102271.00;5261781;28;20182;-67
2021/06/08 10:52:58;;;;;;;12.38;6.93;;;;;;;27.88;49.12;102274.97;5244768;28;20489;-66
2021/06/08 10:55:36;;;;;;;13.05;6.82;;;;;;;28.03;45.92;102268.88;5242213;28;20119;-66
2021/06/08 10:58:08;;;;;;;10.35;6.20;;;;;;;27.68;47.74;102263.53;5241442;28;20032;-66
2021/06/08 11:00:42;;;;;;;10.13;7.18;;;;;;;27.29;49.15;102268.81;5251301;28;20024;-67
2021/06/08 11:03:13;;;;;;;8.55;7.43;;;;;;;27.07;49.79;102263.94;5250690;28;20063;-66
2021/06/08 11:05:55;;;;;;;9.85;7.18;;;;;;;26.96;50.92;102266.69;5263677;28;20059;-66
2021/06/08 11:09:00;;;;;;;10.07;6.85;;;;;;;26.84;53.91;102259.28;5263158;28;20027;-66
2021/06/08 11:11:45;;;;;;;10.57;7.05;;;;;;;27.18;48.24;102259.50;5252566;28;20039;-67
2021/06/08 11:14:44;;;;;;;;;;;;;;;27.10;48.16;102259.88;5259143;28;20408;-65
2021/06/08 11:17:28;;;;;;;9.15;6.30;;;;;;;27.21;47.46;102258.16;5252964;28;19909;-65
2021/06/08 11:20:05;;;;;;;11.30;6.43;;;;;;;27.06;47.07;102262.25;5254492;28;20027;-65
2021/06/08 11:22:41;;;;;;;8.63;5.75;;;;;;;27.19;49.06;102258.41;5263630;28;20028;-65
2021/06/08 11:25:30;;;;;;;8.27;5.95;;;;;;;27.83;45.80;102255.56;5263689;28;20073;-65
2021/06/08 11:28:04;;;;;;;16.33;6.40;;;;;;;28.04;44.16;102256.75;5263997;28;20047;-65
2021/06/08 11:30:39;;;;;;;9.63;5.80;;;;;;;28.03;41.87;102255.94;5255809;28;20024;-65
2021/06/08 11:33:32;;;;;;;9.32;5.38;;;;;;;28.10;41.48;102262.09;5256369;28;20075;-65
2021/06/08 11:36:22;;;;;;;8.60;5.97;;;;;;;27.99;43.93;102260.25;5263438;28;20077;-65